createdAt,value
2022-08-26T00:00:54.386Z,6.13
2022-08-26T00:03:25.172Z,6.57
2022-08-26T00:05:55.028Z,6.20
2022-08-26T00:08:25.622Z,9.07
2022-08-26T00:10:55.255Z,12.20
2022-08-26T00:13:25.439Z,9.80
2022-08-26T00:15:54.827Z,10.23
2022-08-26T00:18:24.227Z,10.32
2022-08-26T00:20:58.120Z,9.75
2022-08-26T00:23:28.941Z,8.00
2022-08-26T00:25:58.576Z,10.02
2022-08-26T00:28:28.469Z,8.60
2022-08-26T00:30:58.120Z,8.10
2022-08-26T00:33:27.727Z,9.05
2022-08-26T00:35:57.329Z,7.80
2022-08-26T00:38:27.342Z,9.27
2022-08-26T00:40:59.062Z,12.17
2022-08-26T00:43:30.445Z,8.70
2022-08-26T00:46:46.841Z,6.95
2022-08-26T00:49:32.558Z,8.77
2022-08-26T00:52:04.341Z,7.05
2022-08-26T00:54:37.731Z,8.63
2022-08-26T00:57:16.718Z,8.35
2022-08-26T00:59:49.397Z,10.95
2022-08-26T01:02:21.120Z,7.60
2022-08-26T01:04:58.016Z,6.88
2022-08-26T01:07:31.594Z,11.80
2022-08-26T01:10:03.802Z,6.35
2022-08-26T01:12:40.290Z,7.78
2022-08-26T01:15:11.984Z,6.30
2022-08-26T01:17:41.728Z,8.63
2022-08-26T01:20:36.083Z,8.97
2022-08-26T01:23:11.437Z,6.97
2022-08-26T01:25:53.152Z,7.32
2022-08-26T01:28:26.127Z,6.05
2022-08-26T01:30:56.040Z,6.75
2022-08-26T01:33:30.786Z,6.53
2022-08-26T01:36:12.159Z,7.25
2022-08-26T01:38:42.109Z,6.95
2022-08-26T01:41:16.294Z,8.80
2022-08-26T01:43:52.152Z,6.82
2022-08-26T01:46:23.795Z,6.93
2022-08-26T01:48:54.404Z,6.95
2022-08-26T01:51:25.650Z,6.90
2022-08-26T01:53:56.069Z,6.68
2022-08-26T01:56:26.052Z,6.47
2022-08-26T01:59:07.031Z,7.53
2022-08-26T02:01:39.921Z,6.03
2022-08-26T02:04:35.296Z,7.07
2022-08-26T02:07:11.095Z,6.05
2022-08-26T02:09:42.351Z,4.93
2022-08-26T02:12:13.461Z,6.60
2022-08-26T02:14:53.263Z,7.88
2022-08-26T02:17:26.222Z,8.63
2022-08-26T02:19:59.116Z,7.38
2022-08-26T02:22:29.179Z,8.20
2022-08-26T02:25:01.269Z,5.80
2022-08-26T02:27:34.912Z,7.72
2022-08-26T02:30:17.223Z,8.70
2022-08-26T02:32:49.513Z,7.25
2022-08-26T02:35:22.108Z,7.90
2022-08-26T02:37:53.306Z,6.67
2022-08-26T02:40:28.405Z,7.35
2022-08-26T02:42:57.964Z,7.35
2022-08-26T02:45:29.264Z,8.50
2022-08-26T02:48:00.263Z,8.02
2022-08-26T02:50:30.075Z,7.97
2022-08-26T02:53:00.243Z,6.85
2022-08-26T02:55:30.118Z,10.80
2022-08-26T02:58:00.610Z,8.38
2022-08-26T03:00:30.388Z,7.00
2022-08-26T03:03:00.895Z,7.43
2022-08-26T03:05:30.378Z,8.38
2022-08-26T03:08:03.425Z,6.78
2022-08-26T03:10:33.565Z,7.75
2022-08-26T03:13:05.070Z,7.20
2022-08-26T03:15:34.808Z,7.63
2022-08-26T03:18:04.982Z,7.80
2022-08-26T03:20:35.470Z,7.22
2022-08-26T03:23:05.732Z,6.47
2022-08-26T03:25:40.060Z,8.25
2022-08-26T03:28:09.854Z,8.87
2022-08-26T03:30:44.682Z,6.95
2022-08-26T03:33:15.591Z,7.20
2022-08-26T03:35:46.513Z,8.30
2022-08-26T03:38:16.555Z,7.10
2022-08-26T03:40:47.428Z,7.00
2022-08-26T03:43:18.628Z,7.55
2022-08-26T03:45:48.188Z,6.05
2022-08-26T03:48:20.843Z,8.05
2022-08-26T03:50:50.104Z,7.20
2022-08-26T03:53:20.708Z,7.87
2022-08-26T03:55:51.806Z,7.45
2022-08-26T03:58:22.371Z,7.25
2022-08-26T04:00:55.728Z,7.20
2022-08-26T04:03:44.290Z,8.73
2022-08-26T04:06:14.235Z,7.57
2022-08-26T04:08:44.495Z,6.88
2022-08-26T04:11:20.367Z,8.40
2022-08-26T04:13:50.801Z,7.60
2022-08-26T04:16:21.779Z,10.20
2022-08-26T04:18:52.669Z,8.97
2022-08-26T04:21:22.773Z,7.70
2022-08-26T04:23:52.943Z,9.13
2022-08-26T04:26:25.016Z,8.48
2022-08-26T04:28:57.530Z,8.27
2022-08-26T04:31:29.122Z,8.63
2022-08-26T04:34:01.349Z,8.95
2022-08-26T04:36:31.443Z,8.32
2022-08-26T04:39:04.889Z,7.63
2022-08-26T04:41:34.686Z,8.15
2022-08-26T04:44:07.937Z,10.20
2022-08-26T04:46:39.790Z,9.10
2022-08-26T04:49:13.691Z,10.55
2022-08-26T04:51:43.916Z,7.85
2022-08-26T04:54:16.280Z,9.18
2022-08-26T04:56:48.074Z,7.70
2022-08-26T04:59:19.207Z,8.13
2022-08-26T05:01:50.998Z,9.52
2022-08-26T05:04:28.442Z,10.00
2022-08-26T05:07:02.261Z,11.65
2022-08-26T05:09:33.614Z,9.30
2022-08-26T05:12:06.463Z,10.50
2022-08-26T05:14:35.881Z,10.95
2022-08-26T05:17:06.519Z,10.20
2022-08-26T05:19:42.864Z,9.30
2022-08-26T05:22:13.111Z,8.90
2022-08-26T05:24:44.904Z,12.20
2022-08-26T05:27:15.188Z,10.23
2022-08-26T05:29:47.427Z,10.60
2022-08-26T05:32:23.869Z,10.18
2022-08-26T05:34:58.891Z,10.27
2022-08-26T05:37:32.234Z,10.73
2022-08-26T05:40:02.727Z,12.80
2022-08-26T05:42:32.322Z,9.98
2022-08-26T05:45:02.487Z,11.82
2022-08-26T05:47:32.569Z,11.33
2022-08-26T05:50:03.541Z,10.80
2022-08-26T05:52:35.940Z,11.32
2022-08-26T05:55:06.139Z,11.82
2022-08-26T05:57:40.385Z,10.88
2022-08-26T06:00:17.958Z,10.37
2022-08-26T06:02:48.373Z,9.13
2022-08-26T06:05:20.889Z,8.63
2022-08-26T06:08:09.838Z,10.18
2022-08-26T06:11:01.606Z,11.73
2022-08-26T06:13:32.292Z,10.37
2022-08-26T06:16:05.949Z,10.65
2022-08-26T06:18:44.937Z,9.57
2022-08-26T06:21:34.830Z,10.15
2022-08-26T06:24:48.544Z,9.80
2022-08-26T06:27:20.871Z,10.17
2022-08-26T06:29:50.518Z,9.85
2022-08-26T06:32:20.236Z,11.23
2022-08-26T06:34:58.319Z,10.02
2022-08-26T06:37:28.470Z,10.75
2022-08-26T06:39:58.982Z,10.20
2022-08-26T06:42:28.647Z,10.75
2022-08-26T06:45:01.015Z,10.90
2022-08-26T06:47:30.718Z,11.20
2022-08-26T06:50:00.007Z,9.75
2022-08-26T06:52:29.657Z,10.67
2022-08-26T06:54:59.425Z,7.95
2022-08-26T06:57:31.121Z,8.13
2022-08-26T07:00:01.291Z,11.55
2022-08-26T07:02:30.618Z,10.38
2022-08-26T07:05:00.304Z,11.00
2022-08-26T07:07:32.219Z,9.68
2022-08-26T07:10:02.052Z,13.70
2022-08-26T07:12:32.134Z,15.30
2022-08-26T07:15:02.549Z,11.10
2022-08-26T07:17:32.364Z,11.20
2022-08-26T07:20:05.070Z,10.23
2022-08-26T07:22:38.403Z,11.60
2022-08-26T07:25:11.860Z,10.20
2022-08-26T07:27:42.960Z,8.23
2022-08-26T07:30:14.765Z,8.23
2022-08-26T07:32:45.031Z,9.52
2022-08-26T07:35:15.795Z,7.40
2022-08-26T07:37:49.819Z,12.05
2022-08-26T07:40:24.711Z,9.65
2022-08-26T07:43:02.048Z,10.40
2022-08-26T07:45:33.935Z,10.43
2022-08-26T07:48:04.634Z,9.38
2022-08-26T07:50:50.043Z,10.38
2022-08-26T07:53:22.217Z,12.07
2022-08-26T07:55:57.162Z,9.83
2022-08-26T07:58:27.450Z,9.32
2022-08-26T08:00:58.263Z,9.63
2022-08-26T08:03:30.436Z,11.05
2022-08-26T08:06:00.646Z,9.50
2022-08-26T08:08:30.385Z,10.27
2022-08-26T08:11:02.281Z,8.98
2022-08-26T08:13:33.181Z,9.43
2022-08-26T08:16:02.904Z,11.48
2022-08-26T08:18:35.488Z,9.05
2022-08-26T08:21:25.078Z,8.20
2022-08-26T08:23:58.134Z,8.57
2022-08-26T08:26:28.718Z,8.57
2022-08-26T08:29:00.540Z,8.73
2022-08-26T08:31:56.148Z,7.65
2022-08-26T08:34:22.171Z,7.33
2022-08-26T08:36:53.275Z,8.40
2022-08-26T08:39:23.677Z,8.18
2022-08-26T08:42:07.567Z,8.48
2022-08-26T08:44:41.526Z,8.20
2022-08-26T08:47:40.372Z,7.43
2022-08-26T08:50:27.344Z,8.23
2022-08-26T08:53:13.544Z,9.00
2022-08-26T08:55:53.037Z,7.70
2022-08-26T08:58:33.861Z,10.02
2022-08-26T09:01:06.757Z,9.20
2022-08-26T09:04:05.187Z,7.68
2022-08-26T09:06:35.196Z,8.25
2022-08-26T09:09:13.989Z,8.05
2022-08-26T09:11:44.704Z,7.97
2022-08-26T09:14:14.859Z,7.80
2022-08-26T09:17:19.597Z,7.85
2022-08-26T09:19:57.772Z,8.27
2022-08-26T09:22:36.715Z,7.35
2022-08-26T09:25:12.135Z,8.63
2022-08-26T09:27:46.703Z,7.63
2022-08-26T09:30:36.089Z,7.47
2022-08-26T09:33:12.455Z,7.57
2022-08-26T09:35:50.053Z,8.13
2022-08-26T09:38:36.005Z,7.40
2022-08-26T09:41:15.528Z,8.17
2022-08-26T09:43:45.787Z,7.82
2022-08-26T09:46:30.124Z,7.18
2022-08-26T09:49:36.232Z,7.15
2022-08-26T09:52:09.752Z,9.15
2022-08-26T09:54:41.426Z,8.20
2022-08-26T09:57:28.939Z,8.43
2022-08-26T10:00:00.328Z,7.60
2022-08-26T10:02:37.156Z,7.70
2022-08-26T10:05:11.441Z,7.25
2022-08-26T10:07:49.924Z,7.13
2022-08-26T10:10:30.406Z,8.82
2022-08-26T10:13:07.970Z,9.40
2022-08-26T10:16:00.944Z,8.70
2022-08-26T10:19:00.143Z,8.23
2022-08-26T10:21:52.279Z,9.43
2022-08-26T10:24:55.296Z,7.63
2022-08-26T10:27:30.187Z,8.65
2022-08-26T10:30:09.528Z,9.15
2022-08-26T10:32:47.441Z,7.30
2022-08-26T10:35:20.338Z,8.87
2022-08-26T10:38:00.803Z,8.07
2022-08-26T10:40:55.732Z,7.53
2022-08-26T10:43:31.187Z,7.63
2022-08-26T10:46:09.061Z,9.02
2022-08-26T10:48:59.966Z,8.53
2022-08-26T10:51:37.101Z,8.40
2022-08-26T10:54:20.193Z,9.13
2022-08-26T10:57:09.644Z,8.13
2022-08-26T10:59:42.357Z,7.82
2022-08-26T11:02:25.314Z,7.83
2022-08-26T11:05:02.510Z,8.02
2022-08-26T11:07:44.063Z,8.55
2022-08-26T11:10:15.535Z,8.75
2022-08-26T11:12:49.178Z,7.53
2022-08-26T11:15:29.688Z,8.00
2022-08-26T11:18:04.668Z,7.43
2022-08-26T11:20:47.259Z,9.07
2022-08-26T11:23:25.264Z,8.05
2022-08-26T11:26:30.019Z,8.18
2022-08-26T11:29:13.258Z,8.20
2022-08-26T11:31:43.262Z,8.38
2022-08-26T11:34:16.648Z,7.47
2022-08-26T11:36:49.362Z,8.15
2022-08-26T11:39:25.758Z,7.55
2022-08-26T11:42:01.691Z,7.80
2022-08-26T11:44:49.208Z,7.07
2022-08-26T11:47:28.724Z,8.05
2022-08-26T11:50:38.200Z,7.95
2022-08-26T11:53:10.890Z,7.53
2022-08-26T11:55:47.236Z,8.23
2022-08-26T11:58:18.256Z,9.93
2022-08-26T12:00:53.987Z,9.65
2022-08-26T12:03:29.280Z,8.55
2022-08-26T12:06:00.563Z,8.35
2022-08-26T12:08:39.138Z,8.23
2022-08-26T12:11:15.252Z,7.57
2022-08-26T12:13:46.373Z,7.85
2022-08-26T12:16:26.072Z,7.88
2022-08-26T12:18:57.388Z,6.72
2022-08-26T12:21:34.783Z,8.13
2022-08-26T12:24:06.648Z,10.70
2022-08-26T12:26:39.011Z,7.85
2022-08-26T12:29:27.455Z,7.00
2022-08-26T12:32:19.677Z,7.68
2022-08-26T12:34:50.758Z,7.37
2022-08-26T12:37:22.597Z,7.20
2022-08-26T12:39:55.319Z,8.55
2022-08-26T12:42:44.502Z,8.02
2022-08-26T12:45:13.783Z,8.20
2022-08-26T12:47:45.194Z,7.60
2022-08-26T12:50:28.946Z,6.72
2022-08-26T12:53:17.976Z,6.88
2022-08-26T12:55:53.669Z,7.35
2022-08-26T12:58:40.940Z,8.10
2022-08-26T13:01:11.498Z,7.03
2022-08-26T13:03:47.485Z,7.97
2022-08-26T13:06:17.885Z,7.68
2022-08-26T13:09:13.496Z,8.13
2022-08-26T13:11:46.139Z,6.80
2022-08-26T13:14:23.889Z,7.70
2022-08-26T13:16:55.574Z,8.50
2022-08-26T13:19:33.444Z,8.52
2022-08-26T13:22:21.669Z,7.93
2022-08-26T13:24:52.128Z,8.40
2022-08-26T13:27:23.633Z,6.97
2022-08-26T13:33:15.692Z,7.35
2022-08-26T13:36:29.648Z,8.82
2022-08-26T13:39:01.317Z,6.93
2022-08-26T13:41:32.833Z,9.20
2022-08-26T13:44:08.828Z,7.93
2022-08-26T13:46:40.538Z,9.05
2022-08-26T13:49:10.566Z,9.82
2022-08-26T13:51:41.093Z,13.27
2022-08-26T13:54:10.789Z,11.05
2022-08-26T13:56:40.800Z,8.75
2022-08-26T13:59:11.615Z,8.48
2022-08-26T14:01:42.345Z,9.48
2022-08-26T14:04:16.886Z,9.90
2022-08-26T14:06:54.318Z,10.93
2022-08-26T14:09:27.968Z,9.02
2022-08-26T14:12:01.075Z,8.55
2022-08-26T14:14:37.383Z,9.35
2022-08-26T14:17:11.364Z,9.00
2022-08-26T14:19:41.473Z,9.38
2022-08-26T14:22:14.650Z,9.27
2022-08-26T14:24:44.176Z,9.48
2022-08-26T14:27:14.683Z,10.50
2022-08-26T14:30:01.803Z,7.73
2022-08-26T14:32:34.461Z,8.77
2022-08-26T14:35:05.614Z,8.35
2022-08-26T14:37:39.328Z,8.43
2022-08-26T14:40:11.371Z,9.48
2022-08-26T14:42:49.176Z,8.83
2022-08-26T14:45:26.203Z,9.45
2022-08-26T14:48:02.753Z,8.90
2022-08-26T14:50:34.311Z,8.40
2022-08-26T14:53:22.965Z,9.27
2022-08-26T14:55:56.527Z,7.33
2022-08-26T14:58:33.773Z,9.02
2022-08-26T15:01:07.040Z,9.52
2022-08-26T15:03:39.393Z,9.60
2022-08-26T15:06:10.547Z,7.63
2022-08-26T15:08:42.174Z,8.10
2022-08-26T15:11:12.696Z,8.65
2022-08-26T15:13:43.512Z,7.97
2022-08-26T15:16:15.677Z,7.60
2022-08-26T15:18:46.096Z,8.95
2022-08-26T15:21:15.962Z,9.43
2022-08-26T15:23:47.665Z,9.40
2022-08-26T15:26:21.496Z,8.38
2022-08-26T15:28:52.061Z,9.75
2022-08-26T15:31:23.740Z,7.10
2022-08-26T15:33:58.235Z,9.43
2022-08-26T15:36:31.825Z,9.50
2022-08-26T15:39:06.163Z,9.05
2022-08-26T15:41:37.665Z,7.65
2022-08-26T15:44:09.818Z,9.70
2022-08-26T15:46:39.970Z,9.50
2022-08-26T15:49:16.969Z,9.13
2022-08-26T15:51:49.653Z,8.50
2022-08-26T15:54:21.845Z,8.15
2022-08-26T15:56:53.696Z,10.18
2022-08-26T15:59:29.768Z,9.03
2022-08-26T16:02:00.741Z,11.50
2022-08-26T16:04:30.433Z,8.52
2022-08-26T16:07:00.701Z,13.35
2022-08-26T16:09:31.981Z,8.93
2022-08-26T16:12:04.043Z,10.70
2022-08-26T16:14:37.227Z,13.40
2022-08-26T16:17:06.772Z,11.77
2022-08-26T16:19:39.119Z,11.95
2022-08-26T16:22:11.275Z,11.65
2022-08-26T16:24:42.663Z,11.17
2022-08-26T16:27:15.343Z,9.88
2022-08-26T16:29:47.037Z,10.90
2022-08-26T16:32:18.319Z,13.82
2022-08-26T16:34:56.630Z,13.30
2022-08-26T16:37:28.233Z,11.03
2022-08-26T16:39:59.074Z,10.20
2022-08-26T16:42:30.333Z,10.35
2022-08-26T16:45:01.707Z,9.65
2022-08-26T16:47:32.236Z,10.13
2022-08-26T16:50:03.269Z,9.63
2022-08-26T16:52:33.190Z,7.95
2022-08-26T16:55:04.302Z,10.07
2022-08-26T16:57:35.016Z,9.50
2022-08-26T17:00:11.355Z,10.10
2022-08-26T17:02:44.293Z,9.57
2022-08-26T17:05:14.890Z,7.85
2022-08-26T17:07:46.581Z,9.50
2022-08-26T17:10:17.834Z,10.20
2022-08-26T17:12:47.378Z,8.43
2022-08-26T17:15:19.530Z,10.23
2022-08-26T17:17:49.840Z,11.10
2022-08-26T17:20:20.176Z,9.00
2022-08-26T17:22:52.466Z,11.25
2022-08-26T17:25:35.182Z,11.48
2022-08-26T17:28:05.247Z,10.53
2022-08-26T17:30:43.359Z,10.73
2022-08-26T17:33:13.017Z,11.07
2022-08-26T17:35:43.850Z,11.25
2022-08-26T17:38:13.468Z,11.50
2022-08-26T17:40:45.533Z,12.20
2022-08-26T17:43:16.144Z,8.45
2022-08-26T17:45:46.617Z,10.07
2022-08-26T17:48:16.178Z,9.88
2022-08-26T17:50:49.618Z,11.55
2022-08-26T17:53:21.680Z,11.10
2022-08-26T17:55:53.164Z,9.73
2022-08-26T17:58:25.104Z,8.63
2022-08-26T18:00:57.386Z,8.75
2022-08-26T18:03:27.200Z,10.75
2022-08-26T18:05:58.247Z,10.77
2022-08-26T18:08:27.582Z,9.07
2022-08-26T18:10:58.452Z,9.13
2022-08-26T18:13:27.954Z,9.48
2022-08-26T18:15:57.299Z,8.93
2022-08-26T18:18:26.896Z,10.30
2022-08-26T18:21:01.268Z,8.77
2022-08-26T18:23:31.578Z,8.85
2022-08-26T18:26:01.513Z,10.48
2022-08-26T18:28:32.482Z,10.48
2022-08-26T18:31:06.989Z,12.37
2022-08-26T18:33:37.974Z,8.65
2022-08-26T18:36:09.358Z,9.05
2022-08-26T18:38:38.821Z,10.55
2022-08-26T18:41:13.769Z,11.10
2022-08-26T18:43:42.983Z,9.40
2022-08-26T18:46:13.750Z,7.85
2022-08-26T18:48:43.844Z,8.85
2022-08-26T18:51:24.554Z,9.98
2022-08-26T18:53:54.689Z,9.88
2022-08-26T18:56:25.396Z,11.10
2022-08-26T18:58:55.392Z,11.05
2022-08-26T19:01:27.586Z,7.20
2022-08-26T19:04:00.874Z,11.05
2022-08-26T19:06:34.543Z,9.88
2022-08-26T19:09:06.698Z,11.63
2022-08-26T19:11:42.880Z,11.32
2022-08-26T19:14:16.004Z,10.45
2022-08-26T19:16:49.704Z,9.90
2022-08-26T19:19:19.424Z,11.32
2022-08-26T19:21:49.355Z,9.60
2022-08-26T19:24:22.056Z,9.95
2022-08-26T19:26:58.047Z,12.18
2022-08-26T19:29:30.392Z,10.48
2022-08-26T19:32:00.482Z,11.18
2022-08-26T19:34:31.965Z,7.97
2022-08-26T19:37:02.903Z,12.45
2022-08-26T19:39:34.147Z,10.63
2022-08-26T19:42:05.000Z,11.05
2022-08-26T19:44:53.600Z,12.93
2022-08-26T19:47:23.242Z,11.70
2022-08-26T19:50:00.353Z,11.60
2022-08-26T19:52:32.653Z,13.02
2022-08-26T19:55:05.357Z,10.70
2022-08-26T19:57:35.620Z,11.70
2022-08-26T20:00:08.400Z,11.40
2022-08-26T20:02:38.741Z,13.25
2022-08-26T20:05:09.551Z,10.77
2022-08-26T20:07:39.584Z,10.32
2022-08-26T20:10:12.344Z,11.82
2022-08-26T20:12:43.981Z,11.83
2022-08-26T20:15:14.609Z,11.07
2022-08-26T20:17:44.842Z,11.68
2022-08-26T20:20:33.109Z,9.80
2022-08-26T20:23:07.437Z,9.07
2022-08-26T20:25:38.406Z,12.00
2022-08-26T20:28:07.988Z,10.15
2022-08-26T20:30:39.140Z,9.32
2022-08-26T20:33:10.265Z,8.27
2022-08-26T20:35:39.976Z,8.82
2022-08-26T20:38:11.794Z,9.70
2022-08-26T20:40:41.888Z,10.02
2022-08-26T20:43:11.646Z,10.23
2022-08-26T20:45:42.317Z,11.45
2022-08-26T20:48:13.726Z,10.35
2022-08-26T20:50:43.903Z,8.83
2022-08-26T20:53:15.102Z,10.52
2022-08-26T20:55:44.893Z,8.90
2022-08-26T20:58:15.973Z,10.70
2022-08-26T21:00:45.640Z,9.60
2022-08-26T21:03:16.502Z,9.67
2022-08-26T21:05:46.462Z,8.27
2022-08-26T21:08:16.838Z,9.00
2022-08-26T21:10:47.197Z,9.60
2022-08-26T21:13:16.975Z,10.43
2022-08-26T21:15:46.700Z,8.97
2022-08-26T21:18:17.831Z,7.90
2022-08-26T21:20:48.180Z,8.50
2022-08-26T21:23:17.374Z,9.40
2022-08-26T21:25:47.715Z,9.90
2022-08-26T21:28:18.188Z,8.67
2022-08-26T21:30:47.888Z,8.60
2022-08-26T21:33:17.539Z,8.52
2022-08-26T21:35:57.601Z,8.27
2022-08-26T21:38:28.421Z,8.18
2022-08-26T21:41:03.394Z,7.13
2022-08-26T21:43:35.803Z,9.05
2022-08-26T21:46:17.147Z,7.72
2022-08-26T21:48:50.913Z,8.13
2022-08-26T21:51:24.392Z,6.95
2022-08-26T21:53:55.261Z,7.87
2022-08-26T21:56:26.393Z,8.25
2022-08-26T21:58:57.487Z,8.77
2022-08-26T22:01:30.564Z,7.00
2022-08-26T22:04:00.992Z,7.07
2022-08-26T22:06:31.060Z,8.17
2022-08-26T22:09:00.797Z,6.47
2022-08-26T22:11:30.993Z,7.18
2022-08-26T22:14:00.608Z,8.75
2022-08-26T22:16:31.824Z,7.13
2022-08-26T22:19:02.069Z,7.50
2022-08-26T22:21:31.840Z,7.38
2022-08-26T22:24:01.615Z,6.10
2022-08-26T22:26:33.123Z,7.30
2022-08-26T22:29:03.240Z,6.43
2022-08-26T22:31:38.373Z,7.70
2022-08-26T22:34:13.327Z,7.20
2022-08-26T22:36:45.681Z,7.30
2022-08-26T22:39:19.120Z,5.63
2022-08-26T22:41:51.601Z,6.57
2022-08-26T22:44:24.866Z,6.30
2022-08-26T22:46:56.782Z,6.63
2022-08-26T22:49:26.799Z,6.63
2022-08-26T22:51:56.290Z,6.68
2022-08-26T22:54:26.011Z,5.97
2022-08-26T22:56:55.652Z,5.73
2022-08-26T22:59:25.363Z,6.93
2022-08-26T23:01:54.783Z,6.88
2022-08-26T23:04:24.471Z,5.88
2022-08-26T23:06:54.377Z,7.45
2022-08-26T23:09:24.619Z,7.10
2022-08-26T23:11:57.421Z,6.68
2022-08-26T23:14:29.896Z,6.00
2022-08-26T23:16:59.376Z,6.05
2022-08-26T23:19:29.424Z,7.78
2022-08-26T23:21:59.085Z,7.80
2022-08-26T23:24:28.652Z,5.65
2022-08-26T23:26:58.380Z,7.65
2022-08-26T23:29:28.523Z,6.35
2022-08-26T23:31:58.524Z,6.85
2022-08-26T23:34:47.466Z,6.23
2022-08-26T23:37:19.580Z,5.88
2022-08-26T23:39:50.882Z,6.70
2022-08-26T23:42:21.610Z,6.30
2022-08-26T23:44:51.663Z,5.90
2022-08-26T23:47:21.434Z,6.13
2022-08-26T23:49:52.427Z,6.88
2022-08-26T23:52:39.746Z,6.68
2022-08-26T23:55:11.152Z,6.28
2022-08-26T23:57:41.458Z,5.50
